sensor_id;sensor_type;location;lat;lon;timestamp;P1;durP1;ratioP1;P2;durP2;ratioP2
2009;SDS011;1008;47.404;8.502;2022-09-09T00:02:08;3.00;;;2.23;;
2009;SDS011;1008;47.404;8.502;2022-09-09T00:04:43;2.20;;;1.90;;
2009;SDS011;1008;47.404;8.502;2022-09-09T00:07:18;2.97;;;2.30;;
2009;SDS011;1008;47.404;8.502;2022-09-09T00:09:52;6.43;;;3.07;;
2009;SDS011;1008;47.404;8.502;2022-09-09T00:12:27;5.00;;;2.63;;
2009;SDS011;1008;47.404;8.502;2022-09-09T00:15:03;6.33;;;3.80;;
2009;SDS011;1008;47.404;8.502;2022-09-09T00:17:38;7.30;;;3.57;;
2009;SDS011;1008;47.404;8.502;2022-09-09T00:20:11;4.37;;;3.17;;
2009;SDS011;1008;47.404;8.502;2022-09-09T00:22:43;5.73;;;3.43;;
2009;SDS011;1008;47.404;8.502;2022-09-09T00:25:14;4.00;;;2.80;;
2009;SDS011;1008;47.404;8.502;2022-09-09T00:27:49;4.80;;;2.70;;
2009;SDS011;1008;47.404;8.502;2022-09-09T00:30:17;2.77;;;2.40;;
2009;SDS011;1008;47.404;8.502;2022-09-09T00:32:47;6.77;;;3.27;;
2009;SDS011;1008;47.404;8.502;2022-09-09T00:35:16;9.20;;;3.27;;
2009;SDS011;1008;47.404;8.502;2022-09-09T00:37:50;5.23;;;2.80;;
2009;SDS011;1008;47.404;8.502;2022-09-09T00:40:22;5.13;;;3.17;;
2009;SDS011;1008;47.404;8.502;2022-09-09T00:42:52;5.97;;;3.10;;
2009;SDS011;1008;47.404;8.502;2022-09-09T00:45:37;7.83;;;3.40;;
2009;SDS011;1008;47.404;8.502;2022-09-09T00:48:21;6.53;;;3.10;;
2009;SDS011;1008;47.404;8.502;2022-09-09T00:50:57;6.13;;;2.70;;
2009;SDS011;1008;47.404;8.502;2022-09-09T00:53:31;5.30;;;2.73;;
2009;SDS011;1008;47.404;8.502;2022-09-09T00:56:08;8.50;;;3.00;;
2009;SDS011;1008;47.404;8.502;2022-09-09T00:58:40;3.57;;;2.20;;
2009;SDS011;1008;47.404;8.502;2022-09-09T01:01:09;3.87;;;2.70;;
2009;SDS011;1008;47.404;8.502;2022-09-09T01:03:38;7.00;;;3.13;;
2009;SDS011;1008;47.404;8.502;2022-09-09T01:06:14;4.90;;;2.20;;
2009;SDS011;1008;47.404;8.502;2022-09-09T01:09:02;4.10;;;2.20;;
2009;SDS011;1008;47.404;8.502;2022-09-09T01:11:37;3.00;;;2.13;;
2009;SDS011;1008;47.404;8.502;2022-09-09T01:14:14;7.57;;;1.63;;
2009;SDS011;1008;47.404;8.502;2022-09-09T01:16:50;2.40;;;1.83;;
2009;SDS011;1008;47.404;8.502;2022-09-09T01:19:33;4.43;;;1.90;;
2009;SDS011;1008;47.404;8.502;2022-09-09T01:22:12;4.80;;;2.20;;
2009;SDS011;1008;47.404;8.502;2022-09-09T01:24:51;3.90;;;2.00;;
2009;SDS011;1008;47.404;8.502;2022-09-09T01:27:36;2.53;;;1.93;;
2009;SDS011;1008;47.404;8.502;2022-09-09T01:30:05;2.27;;;1.93;;
2009;SDS011;1008;47.404;8.502;2022-09-09T01:32:38;2.07;;;1.87;;
2009;SDS011;1008;47.404;8.502;2022-09-09T01:35:07;3.20;;;1.83;;
2009;SDS011;1008;47.404;8.502;2022-09-09T01:37:37;2.20;;;1.40;;
2009;SDS011;1008;47.404;8.502;2022-09-09T01:40:04;2.10;;;1.60;;
2009;SDS011;1008;47.404;8.502;2022-09-09T01:42:32;2.10;;;1.73;;
2009;SDS011;1008;47.404;8.502;2022-09-09T01:45:00;2.57;;;2.27;;
2009;SDS011;1008;47.404;8.502;2022-09-09T01:47:27;1.83;;;1.70;;
2009;SDS011;1008;47.404;8.502;2022-09-09T01:49:53;2.40;;;1.80;;
2009;SDS011;1008;47.404;8.502;2022-09-09T01:52:20;3.20;;;1.80;;
2009;SDS011;1008;47.404;8.502;2022-09-09T01:54:47;4.50;;;1.83;;
2009;SDS011;1008;47.404;8.502;2022-09-09T01:57:15;3.30;;;1.67;;
2009;SDS011;1008;47.404;8.502;2022-09-09T01:59:48;7.70;;;1.70;;
2009;SDS011;1008;47.404;8.502;2022-09-09T02:02:29;5.63;;;1.93;;
2009;SDS011;1008;47.404;8.502;2022-09-09T02:05:01;2.00;;;1.30;;
2009;SDS011;1008;47.404;8.502;2022-09-09T02:07:38;2.03;;;1.83;;
2009;SDS011;1008;47.404;8.502;2022-09-09T02:10:09;1.93;;;1.73;;
2009;SDS011;1008;47.404;8.502;2022-09-09T02:12:42;2.07;;;1.73;;
2009;SDS011;1008;47.404;8.502;2022-09-09T02:15:16;3.80;;;1.67;;
2009;SDS011;1008;47.404;8.502;2022-09-09T02:17:51;1.80;;;1.57;;
2009;SDS011;1008;47.404;8.502;2022-09-09T02:20:20;2.17;;;1.50;;
2009;SDS011;1008;47.404;8.502;2022-09-09T02:22:50;2.77;;;1.90;;
2009;SDS011;1008;47.404;8.502;2022-09-09T02:25:19;2.60;;;2.20;;
2009;SDS011;1008;47.404;8.502;2022-09-09T02:27:49;1.97;;;1.70;;
2009;SDS011;1008;47.404;8.502;2022-09-09T02:30:17;3.30;;;1.90;;
2009;SDS011;1008;47.404;8.502;2022-09-09T02:32:44;2.63;;;1.60;;
2009;SDS011;1008;47.404;8.502;2022-09-09T02:35:15;2.00;;;1.70;;
2009;SDS011;1008;47.404;8.502;2022-09-09T02:37:45;3.80;;;1.80;;
2009;SDS011;1008;47.404;8.502;2022-09-09T02:40:12;2.13;;;1.30;;
2009;SDS011;1008;47.404;8.502;2022-09-09T02:42:41;3.43;;;2.13;;
2009;SDS011;1008;47.404;8.502;2022-09-09T02:45:09;1.60;;;1.50;;
2009;SDS011;1008;47.404;8.502;2022-09-09T02:47:38;3.50;;;1.87;;
2009;SDS011;1008;47.404;8.502;2022-09-09T02:50:12;3.77;;;1.80;;
2009;SDS011;1008;47.404;8.502;2022-09-09T02:52:46;4.70;;;2.27;;
2009;SDS011;1008;47.404;8.502;2022-09-09T02:55:22;1.97;;;1.40;;
2009;SDS011;1008;47.404;8.502;2022-09-09T02:57:56;1.63;;;1.53;;
2009;SDS011;1008;47.404;8.502;2022-09-09T03:00:24;2.40;;;1.70;;
2009;SDS011;1008;47.404;8.502;2022-09-09T03:02:52;2.00;;;1.70;;
2009;SDS011;1008;47.404;8.502;2022-09-09T03:05:21;3.47;;;1.87;;
2009;SDS011;1008;47.404;8.502;2022-09-09T03:07:48;2.30;;;1.20;;
2009;SDS011;1008;47.404;8.502;2022-09-09T03:10:15;4.23;;;2.03;;
2009;SDS011;1008;47.404;8.502;2022-09-09T03:12:42;1.83;;;1.50;;
2009;SDS011;1008;47.404;8.502;2022-09-09T03:15:09;2.50;;;1.40;;
2009;SDS011;1008;47.404;8.502;2022-09-09T03:17:36;1.77;;;1.67;;
2009;SDS011;1008;47.404;8.502;2022-09-09T03:20:03;3.13;;;1.67;;
2009;SDS011;1008;47.404;8.502;2022-09-09T03:22:32;3.27;;;1.57;;
2009;SDS011;1008;47.404;8.502;2022-09-09T03:24:59;1.50;;;1.40;;
2009;SDS011;1008;47.404;8.502;2022-09-09T03:27:25;2.40;;;1.60;;
2009;SDS011;1008;47.404;8.502;2022-09-09T03:29:52;1.33;;;1.10;;
2009;SDS011;1008;47.404;8.502;2022-09-09T03:32:19;2.40;;;1.67;;
2009;SDS011;1008;47.404;8.502;2022-09-09T03:34:47;2.87;;;2.00;;
2009;SDS011;1008;47.404;8.502;2022-09-09T03:37:14;2.07;;;1.80;;
2009;SDS011;1008;47.404;8.502;2022-09-09T03:39:44;2.47;;;1.60;;
2009;SDS011;1008;47.404;8.502;2022-09-09T03:42:12;1.87;;;1.47;;
2009;SDS011;1008;47.404;8.502;2022-09-09T03:44:43;2.43;;;1.40;;
2009;SDS011;1008;47.404;8.502;2022-09-09T03:47:15;2.43;;;1.70;;
2009;SDS011;1008;47.404;8.502;2022-09-09T03:49:43;1.63;;;1.53;;
2009;SDS011;1008;47.404;8.502;2022-09-09T03:52:09;3.40;;;2.10;;
2009;SDS011;1008;47.404;8.502;2022-09-09T03:54:36;2.97;;;1.87;;
2009;SDS011;1008;47.404;8.502;2022-09-09T03:57:05;2.23;;;1.80;;
2009;SDS011;1008;47.404;8.502;2022-09-09T03:59:32;1.57;;;1.40;;
2009;SDS011;1008;47.404;8.502;2022-09-09T04:02:00;1.70;;;1.40;;
2009;SDS011;1008;47.404;8.502;2022-09-09T04:04:27;1.63;;;1.53;;
2009;SDS011;1008;47.404;8.502;2022-09-09T04:06:53;1.37;;;1.23;;
2009;SDS011;1008;47.404;8.502;2022-09-09T04:09:20;1.53;;;1.20;;
2009;SDS011;1008;47.404;8.502;2022-09-09T04:11:48;1.50;;;1.40;;
2009;SDS011;1008;47.404;8.502;2022-09-09T04:14:16;5.87;;;1.50;;
2009;SDS011;1008;47.404;8.502;2022-09-09T04:16:43;1.40;;;1.10;;
2009;SDS011;1008;47.404;8.502;2022-09-09T04:19:10;1.60;;;1.20;;
2009;SDS011;1008;47.404;8.502;2022-09-09T04:21:38;1.47;;;1.23;;
2009;SDS011;1008;47.404;8.502;2022-09-09T04:24:05;1.50;;;1.20;;
2009;SDS011;1008;47.404;8.502;2022-09-09T04:26:33;2.40;;;1.00;;
2009;SDS011;1008;47.404;8.502;2022-09-09T04:29:00;1.50;;;1.27;;
2009;SDS011;1008;47.404;8.502;2022-09-09T04:31:28;1.57;;;1.20;;
2009;SDS011;1008;47.404;8.502;2022-09-09T04:33:55;1.30;;;1.07;;
2009;SDS011;1008;47.404;8.502;2022-09-09T04:36:22;4.03;;;1.30;;
2009;SDS011;1008;47.404;8.502;2022-09-09T04:38:49;1.80;;;1.17;;
2009;SDS011;1008;47.404;8.502;2022-09-09T04:41:16;1.57;;;1.10;;
2009;SDS011;1008;47.404;8.502;2022-09-09T04:43:43;2.33;;;1.30;;
2009;SDS011;1008;47.404;8.502;2022-09-09T04:46:10;3.47;;;1.43;;
2009;SDS011;1008;47.404;8.502;2022-09-09T04:48:38;2.97;;;1.30;;
2009;SDS011;1008;47.404;8.502;2022-09-09T04:51:05;1.53;;;1.30;;
2009;SDS011;1008;47.404;8.502;2022-09-09T04:53:34;1.30;;;1.20;;
2009;SDS011;1008;47.404;8.502;2022-09-09T04:56:02;1.63;;;1.13;;
2009;SDS011;1008;47.404;8.502;2022-09-09T04:58:31;1.40;;;1.17;;
2009;SDS011;1008;47.404;8.502;2022-09-09T05:01:05;1.70;;;1.30;;
2009;SDS011;1008;47.404;8.502;2022-09-09T05:03:32;1.67;;;1.10;;
2009;SDS011;1008;47.404;8.502;2022-09-09T05:06:04;1.30;;;1.10;;
2009;SDS011;1008;47.404;8.502;2022-09-09T05:08:33;1.27;;;1.17;;
2009;SDS011;1008;47.404;8.502;2022-09-09T05:11:00;1.20;;;1.07;;
2009;SDS011;1008;47.404;8.502;2022-09-09T05:13:27;1.50;;;1.07;;
2009;SDS011;1008;47.404;8.502;2022-09-09T05:15:54;1.27;;;1.17;;
2009;SDS011;1008;47.404;8.502;2022-09-09T05:18:21;1.60;;;1.17;;
2009;SDS011;1008;47.404;8.502;2022-09-09T05:20:48;1.80;;;1.30;;
2009;SDS011;1008;47.404;8.502;2022-09-09T05:23:17;1.30;;;1.13;;
2009;SDS011;1008;47.404;8.502;2022-09-09T05:25:52;4.60;;;1.37;;
2009;SDS011;1008;47.404;8.502;2022-09-09T05:28:21;1.60;;;1.00;;
2009;SDS011;1008;47.404;8.502;2022-09-09T05:30:54;2.43;;;1.23;;
2009;SDS011;1008;47.404;8.502;2022-09-09T05:33:22;4.43;;;1.10;;
2009;SDS011;1008;47.404;8.502;2022-09-09T05:35:54;1.57;;;1.17;;
2009;SDS011;1008;47.404;8.502;2022-09-09T05:38:23;1.33;;;1.23;;
2009;SDS011;1008;47.404;8.502;2022-09-09T05:40:50;1.47;;;1.27;;
2009;SDS011;1008;47.404;8.502;2022-09-09T05:43:17;1.67;;;1.23;;
2009;SDS011;1008;47.404;8.502;2022-09-09T05:45:44;5.73;;;1.67;;
2009;SDS011;1008;47.404;8.502;2022-09-09T05:48:12;1.23;;;1.13;;
2009;SDS011;1008;47.404;8.502;2022-09-09T05:50:40;2.20;;;1.20;;
2009;SDS011;1008;47.404;8.502;2022-09-09T05:53:07;2.17;;;1.23;;
2009;SDS011;1008;47.404;8.502;2022-09-09T05:55:36;1.20;;;1.10;;
2009;SDS011;1008;47.404;8.502;2022-09-09T05:58:02;1.73;;;1.40;;
2009;SDS011;1008;47.404;8.502;2022-09-09T06:00:29;3.10;;;1.60;;
2009;SDS011;1008;47.404;8.502;2022-09-09T06:02:57;2.80;;;1.60;;
2009;SDS011;1008;47.404;8.502;2022-09-09T06:05:23;1.83;;;1.47;;
2009;SDS011;1008;47.404;8.502;2022-09-09T06:07:52;1.40;;;1.10;;
2009;SDS011;1008;47.404;8.502;2022-09-09T06:10:19;1.43;;;1.30;;
2009;SDS011;1008;47.404;8.502;2022-09-09T06:12:47;1.30;;;1.20;;
2009;SDS011;1008;47.404;8.502;2022-09-09T06:15:14;1.37;;;1.27;;
2009;SDS011;1008;47.404;8.502;2022-09-09T06:17:42;2.47;;;1.10;;
2009;SDS011;1008;47.404;8.502;2022-09-09T06:20:10;1.50;;;1.37;;
2009;SDS011;1008;47.404;8.502;2022-09-09T06:22:38;1.20;;;1.10;;
2009;SDS011;1008;47.404;8.502;2022-09-09T06:25:06;1.50;;;1.30;;
2009;SDS011;1008;47.404;8.502;2022-09-09T06:27:34;3.50;;;1.47;;
2009;SDS011;1008;47.404;8.502;2022-09-09T06:30:02;1.30;;;1.10;;
2009;SDS011;1008;47.404;8.502;2022-09-09T06:32:29;8.13;;;1.37;;
2009;SDS011;1008;47.404;8.502;2022-09-09T06:35:00;1.50;;;1.40;;
2009;SDS011;1008;47.404;8.502;2022-09-09T06:37:27;2.60;;;1.20;;
2009;SDS011;1008;47.404;8.502;2022-09-09T06:39:54;1.10;;;0.97;;
2009;SDS011;1008;47.404;8.502;2022-09-09T06:42:21;2.03;;;1.00;;
2009;SDS011;1008;47.404;8.502;2022-09-09T06:44:47;2.50;;;1.43;;
2009;SDS011;1008;47.404;8.502;2022-09-09T06:47:16;1.20;;;1.00;;
2009;SDS011;1008;47.404;8.502;2022-09-09T06:49:42;3.60;;;1.77;;
2009;SDS011;1008;47.404;8.502;2022-09-09T06:52:09;2.17;;;1.80;;
2009;SDS011;1008;47.404;8.502;2022-09-09T06:54:36;1.63;;;1.10;;
2009;SDS011;1008;47.404;8.502;2022-09-09T06:57:03;1.30;;;1.10;;
2009;SDS011;1008;47.404;8.502;2022-09-09T06:59:32;1.30;;;1.20;;
2009;SDS011;1008;47.404;8.502;2022-09-09T07:01:58;1.00;;;0.87;;
2009;SDS011;1008;47.404;8.502;2022-09-09T07:04:27;1.10;;;1.00;;
2009;SDS011;1008;47.404;8.502;2022-09-09T07:06:54;2.50;;;1.50;;
2009;SDS011;1008;47.404;8.502;2022-09-09T07:09:20;3.87;;;1.60;;
2009;SDS011;1008;47.404;8.502;2022-09-09T07:11:49;1.90;;;1.20;;
2009;SDS011;1008;47.404;8.502;2022-09-09T07:14:17;1.43;;;1.20;;
2009;SDS011;1008;47.404;8.502;2022-09-09T07:16:46;1.50;;;1.20;;
2009;SDS011;1008;47.404;8.502;2022-09-09T07:19:13;1.33;;;1.13;;
2009;SDS011;1008;47.404;8.502;2022-09-09T07:21:42;1.43;;;1.10;;
2009;SDS011;1008;47.404;8.502;2022-09-09T07:24:09;1.43;;;0.90;;
2009;SDS011;1008;47.404;8.502;2022-09-09T07:26:37;1.10;;;1.00;;
2009;SDS011;1008;47.404;8.502;2022-09-09T07:29:05;1.50;;;1.17;;
2009;SDS011;1008;47.404;8.502;2022-09-09T07:31:32;1.43;;;1.20;;
2009;SDS011;1008;47.404;8.502;2022-09-09T07:34:00;1.93;;;1.40;;
2009;SDS011;1008;47.404;8.502;2022-09-09T07:36:27;1.37;;;1.27;;
2009;SDS011;1008;47.404;8.502;2022-09-09T07:38:57;3.00;;;1.30;;
2009;SDS011;1008;47.404;8.502;2022-09-09T07:41:25;4.20;;;1.50;;
2009;SDS011;1008;47.404;8.502;2022-09-09T07:43:54;1.40;;;1.20;;
2009;SDS011;1008;47.404;8.502;2022-09-09T07:46:21;1.43;;;1.30;;
2009;SDS011;1008;47.404;8.502;2022-09-09T07:48:50;1.47;;;1.33;;
2009;SDS011;1008;47.404;8.502;2022-09-09T07:51:18;1.10;;;0.90;;
2009;SDS011;1008;47.404;8.502;2022-09-09T07:53:47;1.23;;;1.07;;
2009;SDS011;1008;47.404;8.502;2022-09-09T07:56:18;1.50;;;1.27;;
2009;SDS011;1008;47.404;8.502;2022-09-09T07:58:48;1.40;;;1.17;;
2009;SDS011;1008;47.404;8.502;2022-09-09T08:01:16;2.50;;;1.33;;
2009;SDS011;1008;47.404;8.502;2022-09-09T08:03:45;1.50;;;1.23;;
2009;SDS011;1008;47.404;8.502;2022-09-09T08:06:13;1.73;;;1.37;;
2009;SDS011;1008;47.404;8.502;2022-09-09T08:08:40;2.43;;;1.27;;
2009;SDS011;1008;47.404;8.502;2022-09-09T08:11:10;1.67;;;1.23;;
2009;SDS011;1008;47.404;8.502;2022-09-09T08:13:41;3.87;;;1.33;;
2009;SDS011;1008;47.404;8.502;2022-09-09T08:16:09;1.50;;;1.40;;
2009;SDS011;1008;47.404;8.502;2022-09-09T08:18:38;1.60;;;1.50;;
2009;SDS011;1008;47.404;8.502;2022-09-09T08:21:05;2.00;;;1.20;;
2009;SDS011;1008;47.404;8.502;2022-09-09T08:23:34;1.40;;;1.20;;
2009;SDS011;1008;47.404;8.502;2022-09-09T08:26:04;2.00;;;1.47;;
2009;SDS011;1008;47.404;8.502;2022-09-09T08:28:32;3.27;;;2.10;;
2009;SDS011;1008;47.404;8.502;2022-09-09T08:31:06;2.97;;;2.00;;
2009;SDS011;1008;47.404;8.502;2022-09-09T08:33:34;2.87;;;1.47;;
2009;SDS011;1008;47.404;8.502;2022-09-09T08:36:03;1.77;;;1.27;;
2009;SDS011;1008;47.404;8.502;2022-09-09T08:38:30;1.43;;;1.30;;
2009;SDS011;1008;47.404;8.502;2022-09-09T08:40:58;1.33;;;1.00;;
2009;SDS011;1008;47.404;8.502;2022-09-09T08:43:33;1.43;;;1.20;;
2009;SDS011;1008;47.404;8.502;2022-09-09T08:46:01;1.73;;;1.63;;
2009;SDS011;1008;47.404;8.502;2022-09-09T08:48:39;1.40;;;1.30;;
2009;SDS011;1008;47.404;8.502;2022-09-09T08:51:11;2.40;;;1.50;;
2009;SDS011;1008;47.404;8.502;2022-09-09T08:53:40;2.00;;;1.33;;
2009;SDS011;1008;47.404;8.502;2022-09-09T08:56:11;1.23;;;1.13;;
2009;SDS011;1008;47.404;8.502;2022-09-09T08:58:42;3.37;;;1.10;;
2009;SDS011;1008;47.404;8.502;2022-09-09T09:01:17;3.40;;;2.60;;
2009;SDS011;1008;47.404;8.502;2022-09-09T09:03:59;1.73;;;1.43;;
2009;SDS011;1008;47.404;8.502;2022-09-09T09:06:36;1.40;;;1.30;;
2009;SDS011;1008;47.404;8.502;2022-09-09T09:09:14;1.47;;;1.13;;
2009;SDS011;1008;47.404;8.502;2022-09-09T09:11:48;4.47;;;1.50;;
2009;SDS011;1008;47.404;8.502;2022-09-09T09:14:18;1.20;;;1.10;;
2009;SDS011;1008;47.404;8.502;2022-09-09T09:16:50;4.50;;;1.50;;
2009;SDS011;1008;47.404;8.502;2022-09-09T09:19:22;1.30;;;1.20;;
2009;SDS011;1008;47.404;8.502;2022-09-09T09:21:52;1.93;;;1.20;;
2009;SDS011;1008;47.404;8.502;2022-09-09T09:24:24;5.60;;;1.53;;
2009;SDS011;1008;47.404;8.502;2022-09-09T09:26:58;1.73;;;1.03;;
2009;SDS011;1008;47.404;8.502;2022-09-09T09:29:30;2.90;;;1.43;;
2009;SDS011;1008;47.404;8.502;2022-09-09T09:31:58;2.53;;;1.37;;
2009;SDS011;1008;47.404;8.502;2022-09-09T09:34:29;3.40;;;1.60;;
2009;SDS011;1008;47.404;8.502;2022-09-09T09:36:56;3.20;;;1.60;;
2009;SDS011;1008;47.404;8.502;2022-09-09T09:39:27;1.40;;;1.30;;
2009;SDS011;1008;47.404;8.502;2022-09-09T09:41:55;4.33;;;1.37;;
2009;SDS011;1008;47.404;8.502;2022-09-09T09:44:23;1.50;;;1.37;;
2009;SDS011;1008;47.404;8.502;2022-09-09T09:46:52;1.60;;;1.03;;
2009;SDS011;1008;47.404;8.502;2022-09-09T09:49:32;2.07;;;1.33;;
2009;SDS011;1008;47.404;8.502;2022-09-09T09:52:00;1.60;;;1.40;;
2009;SDS011;1008;47.404;8.502;2022-09-09T09:54:27;2.50;;;1.30;;
2009;SDS011;1008;47.404;8.502;2022-09-09T09:56:56;1.40;;;1.23;;
2009;SDS011;1008;47.404;8.502;2022-09-09T09:59:34;1.97;;;1.40;;
2009;SDS011;1008;47.404;8.502;2022-09-09T10:02:15;3.00;;;1.40;;
2009;SDS011;1008;47.404;8.502;2022-09-09T10:04:59;1.53;;;1.30;;
2009;SDS011;1008;47.404;8.502;2022-09-09T10:07:27;1.77;;;1.40;;
2009;SDS011;1008;47.404;8.502;2022-09-09T10:09:54;4.40;;;1.40;;
2009;SDS011;1008;47.404;8.502;2022-09-09T10:12:24;1.30;;;1.10;;
2009;SDS011;1008;47.404;8.502;2022-09-09T10:15:02;1.80;;;1.30;;
2009;SDS011;1008;47.404;8.502;2022-09-09T10:17:40;1.33;;;1.10;;
2009;SDS011;1008;47.404;8.502;2022-09-09T10:20:18;1.20;;;1.00;;
2009;SDS011;1008;47.404;8.502;2022-09-09T10:22:58;1.50;;;1.33;;
2009;SDS011;1008;47.404;8.502;2022-09-09T10:25:38;1.83;;;1.40;;
2009;SDS011;1008;47.404;8.502;2022-09-09T10:28:33;1.10;;;0.93;;
2009;SDS011;1008;47.404;8.502;2022-09-09T10:31:17;1.33;;;1.00;;
2009;SDS011;1008;47.404;8.502;2022-09-09T10:33:55;1.13;;;1.00;;
2009;SDS011;1008;47.404;8.502;2022-09-09T10:36:32;1.73;;;1.20;;
2009;SDS011;1008;47.404;8.502;2022-09-09T10:39:01;1.30;;;0.90;;
2009;SDS011;1008;47.404;8.502;2022-09-09T10:41:34;1.10;;;1.00;;
2009;SDS011;1008;47.404;8.502;2022-09-09T10:44:21;2.30;;;1.40;;
2009;SDS011;1008;47.404;8.502;2022-09-09T10:47:00;1.73;;;1.10;;
2009;SDS011;1008;47.404;8.502;2022-09-09T10:50:05;3.10;;;1.10;;
2009;SDS011;1008;47.404;8.502;2022-09-09T10:52:55;1.30;;;1.10;;
2009;SDS011;1008;47.404;8.502;2022-09-09T10:55:32;5.07;;;1.20;;
2009;SDS011;1008;47.404;8.502;2022-09-09T10:58:03;1.27;;;1.13;;
2009;SDS011;1008;47.404;8.502;2022-09-09T11:00:36;1.77;;;1.33;;
2009;SDS011;1008;47.404;8.502;2022-09-09T11:03:05;1.50;;;1.20;;
2009;SDS011;1008;47.404;8.502;2022-09-09T11:05:41;1.73;;;1.30;;
2009;SDS011;1008;47.404;8.502;2022-09-09T11:08:12;2.23;;;1.50;;
2009;SDS011;1008;47.404;8.502;2022-09-09T11:10:42;2.23;;;1.20;;
2009;SDS011;1008;47.404;8.502;2022-09-09T11:13:14;2.53;;;1.27;;
2009;SDS011;1008;47.404;8.502;2022-09-09T11:15:46;2.00;;;1.30;;
2009;SDS011;1008;47.404;8.502;2022-09-09T11:18:19;1.57;;;1.23;;
2009;SDS011;1008;47.404;8.502;2022-09-09T11:20:48;1.40;;;1.30;;
2009;SDS011;1008;47.404;8.502;2022-09-09T11:23:20;3.00;;;1.37;;
2009;SDS011;1008;47.404;8.502;2022-09-09T11:25:53;3.10;;;1.40;;
2009;SDS011;1008;47.404;8.502;2022-09-09T11:28:32;2.20;;;1.40;;
2009;SDS011;1008;47.404;8.502;2022-09-09T11:31:21;1.30;;;1.10;;
2009;SDS011;1008;47.404;8.502;2022-09-09T11:34:06;1.17;;;1.00;;
2009;SDS011;1008;47.404;8.502;2022-09-09T11:42:33;1.87;;;1.50;;
2009;SDS011;1008;47.404;8.502;2022-09-09T11:45:08;1.40;;;1.30;;
2009;SDS011;1008;47.404;8.502;2022-09-09T11:47:51;1.40;;;1.30;;
2009;SDS011;1008;47.404;8.502;2022-09-09T11:50:27;1.30;;;1.20;;
2009;SDS011;1008;47.404;8.502;2022-09-09T11:53:03;1.40;;;1.20;;
2009;SDS011;1008;47.404;8.502;2022-09-09T11:55:43;2.10;;;1.27;;
2009;SDS011;1008;47.404;8.502;2022-09-09T11:58:15;3.30;;;1.20;;
2009;SDS011;1008;47.404;8.502;2022-09-09T12:00:44;1.60;;;1.30;;
2009;SDS011;1008;47.404;8.502;2022-09-09T12:05:59;1.40;;;1.10;;
2009;SDS011;1008;47.404;8.502;2022-09-09T12:08:40;2.17;;;1.30;;
2009;SDS011;1008;47.404;8.502;2022-09-09T12:11:11;1.50;;;1.27;;
2009;SDS011;1008;47.404;8.502;2022-09-09T12:13:38;2.47;;;1.60;;
2009;SDS011;1008;47.404;8.502;2022-09-09T12:19:04;2.40;;;1.40;;
2009;SDS011;1008;47.404;8.502;2022-09-09T12:21:34;1.83;;;1.30;;
2009;SDS011;1008;47.404;8.502;2022-09-09T12:24:11;1.47;;;1.20;;
2009;SDS011;1008;47.404;8.502;2022-09-09T12:26:43;1.20;;;1.10;;
2009;SDS011;1008;47.404;8.502;2022-09-09T12:29:16;1.30;;;1.03;;
2009;SDS011;1008;47.404;8.502;2022-09-09T12:31:51;1.20;;;1.10;;
2009;SDS011;1008;47.404;8.502;2022-09-09T12:34:27;1.53;;;0.90;;
2009;SDS011;1008;47.404;8.502;2022-09-09T12:37:02;1.30;;;1.10;;
2009;SDS011;1008;47.404;8.502;2022-09-09T12:39:32;2.80;;;1.10;;
2009;SDS011;1008;47.404;8.502;2022-09-09T12:42:01;1.20;;;0.90;;
2009;SDS011;1008;47.404;8.502;2022-09-09T12:44:29;1.00;;;0.90;;
2009;SDS011;1008;47.404;8.502;2022-09-09T12:46:58;1.33;;;1.10;;
2009;SDS011;1008;47.404;8.502;2022-09-09T12:49:28;1.30;;;1.20;;
2009;SDS011;1008;47.404;8.502;2022-09-09T12:52:00;1.33;;;1.20;;
2009;SDS011;1008;47.404;8.502;2022-09-09T12:54:30;1.07;;;0.97;;
2009;SDS011;1008;47.404;8.502;2022-09-09T12:56:57;1.77;;;1.10;;
2009;SDS011;1008;47.404;8.502;2022-09-09T12:59:26;1.53;;;0.93;;
2009;SDS011;1008;47.404;8.502;2022-09-09T13:02:01;1.37;;;1.10;;
2009;SDS011;1008;47.404;8.502;2022-09-09T13:04:28;3.23;;;1.20;;
2009;SDS011;1008;47.404;8.502;2022-09-09T13:07:04;1.43;;;1.33;;
2009;SDS011;1008;47.404;8.502;2022-09-09T13:09:34;1.30;;;1.20;;
2009;SDS011;1008;47.404;8.502;2022-09-09T13:12:01;1.10;;;1.00;;
2009;SDS011;1008;47.404;8.502;2022-09-09T13:14:32;1.10;;;0.90;;
2009;SDS011;1008;47.404;8.502;2022-09-09T13:17:03;1.00;;;0.80;;
2009;SDS011;1008;47.404;8.502;2022-09-09T13:19:32;1.20;;;1.10;;
2009;SDS011;1008;47.404;8.502;2022-09-09T13:22:10;2.10;;;1.13;;
2009;SDS011;1008;47.404;8.502;2022-09-09T13:24:38;1.20;;;0.90;;
2009;SDS011;1008;47.404;8.502;2022-09-09T13:27:20;1.07;;;0.83;;
2009;SDS011;1008;47.404;8.502;2022-09-09T13:29:55;1.10;;;0.90;;
2009;SDS011;1008;47.404;8.502;2022-09-09T13:32:22;1.50;;;1.10;;
2009;SDS011;1008;47.404;8.502;2022-09-09T13:34:52;1.47;;;1.00;;
2009;SDS011;1008;47.404;8.502;2022-09-09T13:37:22;1.77;;;1.10;;
2009;SDS011;1008;47.404;8.502;2022-09-09T13:39:52;2.37;;;1.20;;
2009;SDS011;1008;47.404;8.502;2022-09-09T13:42:24;1.10;;;1.00;;
2009;SDS011;1008;47.404;8.502;2022-09-09T13:44:52;1.10;;;0.90;;
2009;SDS011;1008;47.404;8.502;2022-09-09T13:47:22;1.20;;;0.93;;
2009;SDS011;1008;47.404;8.502;2022-09-09T13:49:55;3.87;;;1.10;;
2009;SDS011;1008;47.404;8.502;2022-09-09T13:52:24;1.33;;;0.97;;
2009;SDS011;1008;47.404;8.502;2022-09-09T13:54:56;1.60;;;0.87;;
2009;SDS011;1008;47.404;8.502;2022-09-09T13:57:24;1.00;;;0.80;;
2009;SDS011;1008;47.404;8.502;2022-09-09T13:59:52;2.10;;;0.90;;
2009;SDS011;1008;47.404;8.502;2022-09-09T14:02:21;1.10;;;0.80;;
2009;SDS011;1008;47.404;8.502;2022-09-09T14:04:48;1.70;;;0.97;;
2009;SDS011;1008;47.404;8.502;2022-09-09T14:07:16;1.87;;;1.00;;
2009;SDS011;1008;47.404;8.502;2022-09-09T14:09:44;2.57;;;0.90;;
2009;SDS011;1008;47.404;8.502;2022-09-09T14:12:15;1.20;;;0.93;;
2009;SDS011;1008;47.404;8.502;2022-09-09T14:14:42;1.10;;;0.90;;
2009;SDS011;1008;47.404;8.502;2022-09-09T14:17:10;1.40;;;1.00;;
2009;SDS011;1008;47.404;8.502;2022-09-09T14:19:39;1.10;;;0.87;;
2009;SDS011;1008;47.404;8.502;2022-09-09T14:22:06;1.00;;;0.77;;
2009;SDS011;1008;47.404;8.502;2022-09-09T14:24:32;1.70;;;0.80;;
2009;SDS011;1008;47.404;8.502;2022-09-09T14:27:00;1.80;;;0.90;;
2009;SDS011;1008;47.404;8.502;2022-09-09T14:29:26;1.93;;;0.80;;
2009;SDS011;1008;47.404;8.502;2022-09-09T14:31:53;1.00;;;0.80;;
2009;SDS011;1008;47.404;8.502;2022-09-09T14:34:21;1.20;;;1.00;;
2009;SDS011;1008;47.404;8.502;2022-09-09T14:36:48;1.97;;;1.10;;
2009;SDS011;1008;47.404;8.502;2022-09-09T14:39:16;1.30;;;1.20;;
2009;SDS011;1008;47.404;8.502;2022-09-09T14:41:42;2.43;;;0.80;;
2009;SDS011;1008;47.404;8.502;2022-09-09T14:44:10;3.70;;;1.20;;
2009;SDS011;1008;47.404;8.502;2022-09-09T14:46:37;2.40;;;1.20;;
2009;SDS011;1008;47.404;8.502;2022-09-09T14:49:04;4.87;;;0.90;;
2009;SDS011;1008;47.404;8.502;2022-09-09T14:51:32;1.10;;;0.93;;
2009;SDS011;1008;47.404;8.502;2022-09-09T14:53:59;5.00;;;1.13;;
2009;SDS011;1008;47.404;8.502;2022-09-09T14:56:27;1.20;;;1.07;;
2009;SDS011;1008;47.404;8.502;2022-09-09T14:58:55;1.67;;;1.27;;
2009;SDS011;1008;47.404;8.502;2022-09-09T15:01:24;2.27;;;1.20;;
2009;SDS011;1008;47.404;8.502;2022-09-09T15:03:52;1.00;;;0.70;;
2009;SDS011;1008;47.404;8.502;2022-09-09T15:06:20;1.40;;;1.00;;
2009;SDS011;1008;47.404;8.502;2022-09-09T15:08:50;1.00;;;0.80;;
2009;SDS011;1008;47.404;8.502;2022-09-09T15:11:17;1.43;;;1.07;;
2009;SDS011;1008;47.404;8.502;2022-09-09T15:13:45;5.57;;;1.00;;
2009;SDS011;1008;47.404;8.502;2022-09-09T15:16:15;2.20;;;1.20;;
2009;SDS011;1008;47.404;8.502;2022-09-09T15:18:43;1.40;;;1.00;;
2009;SDS011;1008;47.404;8.502;2022-09-09T15:21:12;2.57;;;1.13;;
2009;SDS011;1008;47.404;8.502;2022-09-09T15:23:40;1.20;;;0.90;;
2009;SDS011;1008;47.404;8.502;2022-09-09T15:26:09;1.10;;;0.83;;
2009;SDS011;1008;47.404;8.502;2022-09-09T15:28:39;1.20;;;0.90;;
2009;SDS011;1008;47.404;8.502;2022-09-09T15:31:07;1.37;;;1.00;;
2009;SDS011;1008;47.404;8.502;2022-09-09T15:33:37;1.20;;;0.90;;
2009;SDS011;1008;47.404;8.502;2022-09-09T15:36:12;1.00;;;0.90;;
2009;SDS011;1008;47.404;8.502;2022-09-09T15:38:40;1.50;;;1.00;;
2009;SDS011;1008;47.404;8.502;2022-09-09T15:41:08;2.13;;;1.00;;
2009;SDS011;1008;47.404;8.502;2022-09-09T15:43:35;2.07;;;1.10;;
2009;SDS011;1008;47.404;8.502;2022-09-09T15:46:05;1.30;;;0.90;;
2009;SDS011;1008;47.404;8.502;2022-09-09T15:48:49;1.40;;;1.03;;